Nearby METAR Reports

 

KSJC - San Jose, California, USA
Distance from station: NE 9mi, 14km
Updated: Tue, 05-Jul-2022 5:53am PDT
Mostly cloudy
Mostly cloudy
 Wind from calm
Wind: Calm
Temperature: 66°F , 19°C
Dew Point: 57°F , 14°C
Humidity: 73%
Barometer: 29.94 inHg , 1013.9 hPa
Clouds: Mostly cloudy
Visibility: 10 miles , 16 km
Cloud details: Few Clouds 1600 ft
Partly cloudy 3400 ft
Mostly cloudy 9000 ft
2022/07/05 12:53 KSJC 051253Z 00000KT 10SM FEW016 SCT034 BKN090 19/14 A2994 RMK AO2 SLP137 T01890144
KPAO - Palo Alto, California, USA
Distance from station: NNW 14mi, 23km
Updated: Mon, 04-Jul-2022 4:47pm PDT
NOT Current
Mostly cloudy
Mostly cloudy
 Wind from NNW
Wind: NNW 15 mph , 24 km/h
Temperature: 72°F , 22°C
Dew Point: 61°F , 16°C
Humidity: 69%
Barometer: 29.95 inHg , 1014.2 hPa
Clouds: Mostly cloudy
Visibility: 10 miles , 16 km
Cloud details: Partly cloudy 3000 ft
Mostly cloudy 12000 ft
2022/07/04 23:47 KPAO 042347Z 34013KT 10SM SCT030 BKN120 22/16 A2995
 
KRHV - San Jose/Reid, California, USA
Distance from station: ENE 12mi, 19km
Updated: Mon, 04-Jul-2022 9:50pm PDT
NOT Current
Mostly cloudy
Mostly cloudy
 Wind from NNW
Wind: NNW 12 mph , 19 km/h
Temperature: 70°F , 21°C
Dew Point: 59°F , 15°C
Humidity: 69%
Barometer: 29.97 inHg , 1014.9 hPa
Clouds: Mostly cloudy
Visibility: 10 miles , 16 km
Cloud details: Mostly cloudy 9000 ft
2022/07/05 04:50 KRHV 050450Z 34010KT 10SM BKN090 21/15 A2997
KOAK - Oakland, California, USA
Distance from station: NNW 31mi, 50km
Updated: Tue, 05-Jul-2022 5:53am PDT
Overcast
Overcast
 Wind from N
Wind: N 3 mph , 6 km/h
Temperature: 64°F , 18°C
Dew Point: 61°F , 16°C
Humidity: 88%
Barometer: 29.95 inHg , 1014.2 hPa
Clouds: Overcast
Visibility: 10 miles , 16 km
Cloud details: Few Clouds 900 ft
Partly cloudy 1100 ft
Overcast 2200 ft
2022/07/05 12:53 KOAK 051253Z 36003KT 10SM FEW009 SCT011 OVC022 18/16 A2995 RMK AO2 SLP141 T01780161
 
KSQL - San Carlos Airpo, California, USA
Distance from station: NW 21mi, 34km
Updated: Tue, 05-Jul-2022 6:15am PDT
Overcast
Overcast
 Wind from calm
Wind: Calm
Temperature: 66°F , 19°C
Dew Point: 61°F , 16°C
Humidity: 83%
Barometer: 29.95 inHg , 1014.2 hPa
Clouds: Overcast
Visibility: 10 miles , 16 km
Cloud details: Overcast 2500 ft
2022/07/05 13:15 KSQL 051315Z AUTO 00000KT 10SM OVC025 19/16 A2995 RMK AO2
KSFO - San Francisco, California, USA
Distance from station: NW 30mi, 49km
Updated: Tue, 05-Jul-2022 6:13am PDT
Mostly cloudy
Mostly cloudy
 Wind from calm
Wind: Calm
Temperature: 66°F , 19°C
Dew Point: 61°F , 16°C
Humidity: 83%
Barometer: 29.94 inHg , 1013.9 hPa
Clouds: Mostly cloudy
Visibility: 10 miles , 16 km
Cloud details: Few Clouds 600 ft
Mostly cloudy 2600 ft
Mostly cloudy 5000 ft
2022/07/05 13:13 KSFO 051313Z 00000KT 10SM FEW006 BKN026 BKN050 19/16 A2994 RMK AO2 T01890156
 
KE16 - San Martin, California, USA
Distance from station: ESE 27mi, 43km
Updated: Tue, 05-Jul-2022 6:15am PDT
Clear
Clear
 Wind from calm
Wind: Calm
Temperature: 59°F , 15°C
Dew Point: 57°F , 14°C
Humidity: 94%
Barometer: 29.97 inHg , 1014.9 hPa
Clouds: Clear
Visibility: 10 miles , 16 km
2022/07/05 13:15 KE16 051315Z AUTO 00000KT 10SM CLR 15/14 A2997 RMK AO2 PWINO PNO
KWVI - Watsonville, California, USA
Distance from station: SSE 27mi, 44km
Updated: Tue, 05-Jul-2022 5:53am PDT
Mist, Overcast
Mist, Overcast
 Wind from calm
Wind: Calm
Temperature: 57°F , 14°C
Dew Point: 57°F , 14°C
Humidity: 100%
Barometer: 29.96 inHg , 1014.6 hPa
Summary: Mist
Clouds: Overcast
Visibility: 4 miles , 6 km
Cloud details: Overcast 8500 ft
2022/07/05 12:53 KWVI 051253Z AUTO 00000KT 4SM BR OVC085 14/14 A2996 RMK AO2 SLP144 T01440144
 
KHAF - Half Moon Bay, California, USA
Distance from station: WNW 31mi, 50km
Updated: Tue, 05-Jul-2022 6:15am PDT
Fog, Overcast
Fog, Overcast
 Wind from SSE
Wind: SSE 6 mph , 9 km/h
Temperature: 59°F , 15°C
Dew Point: 59°F , 15°C
Humidity: 100%
Barometer: 29.96 inHg , 1014.6 hPa
Summary: Fog
Clouds: Overcast
Visibility: 1/4 mile , 0.4 km
Cloud details: Overcast 200 ft
2022/07/05 13:15 KHAF 051315Z AUTO 16005KT 1/4SM FG OVC002 15/15 A2996 RMK AO2
KHWD - Hayward, California, USA
Distance from station: N 28mi, 44km
Updated: Tue, 05-Jul-2022 5:54am PDT
Overcast
Overcast
 Wind from calm
Wind: Calm
Temperature: 66°F , 19°C
Dew Point: 61°F , 16°C
Humidity: 83%
Barometer: 29.93 inHg , 1013.5 hPa
Clouds: Overcast
Visibility: 10 miles , 16 km
Cloud details: Partly cloudy 900 ft
Overcast 2000 ft
2022/07/05 12:54 KHWD 051254Z AUTO 00000KT 10SM SCT009 OVC020 19/16 A2993 RMK AO2 SLP145 T01890161
 
KLVK - Livermore, California, USA
Distance from station: NNE 31mi, 51km
Updated: Tue, 05-Jul-2022 6:00am PDT
Haze, Overcast
Haze, Overcast
 Wind from WNW
Wind: WNW 8 mph , 13 km/h
Temperature: 66°F , 19°C
Dew Point: 61°F , 16°C
Humidity: 83%
Barometer: 29.93 inHg , 1013.5 hPa
Summary: Haze
Clouds: Overcast
Visibility: 6 miles , 10 km
Cloud details: Partly cloudy 2600 ft
Partly cloudy 3200 ft
Overcast 9000 ft
2022/07/05 13:00 KLVK 051300Z AUTO 30007KT 6SM HZ SCT026 SCT032 OVC090 19/16 A2993 RMK AO2 T01890156